Time;durP1;ratioP1;P1;durP2;ratioP2;P2;SDS_P1;SDS_P2;PMS_P1;PMS_P2;Temp;Humidity;BMP_temperature;BMP_pressure;BME280_temperature;BME280_humidity;BME280_pressure;Samples;Min_cycle;Max_cycle;Signal;HPM_P1;HPM_P2
2023/10/01 00:02:14;;;;;;;49.22;13.27;;;;;;;;;;5059710;28;20036;-78
2023/10/01 00:04:41;;;;;;;42.80;13.70;;;;;;;;;;5060347;28;20360;-78
2023/10/01 00:07:06;;;;;;;48.70;13.25;;;;;;;;;;5077967;28;20204;-78
2023/10/01 00:09:32;;;;;;;46.60;13.10;;;;;;;;;;5077870;28;20449;-78
2023/10/01 00:11:57;;;;;;;49.55;14.02;;;;;;;;;;5078396;28;20025;-78
2023/10/01 00:14:23;;;;;;;50.40;15.23;;;;;;;;;;5077837;28;20123;-79
2023/10/01 00:16:51;;;;;;;34.20;11.85;;;;;;;;;;5077098;28;20040;-78
2023/10/01 00:19:17;;;;;;;32.17;11.00;;;;;;;;;;5078815;28;20045;-78
2023/10/01 00:21:42;;;;;;;27.85;10.40;;;;;;;;;;5077975;28;20399;-78
2023/10/01 00:24:08;;;;;;;28.95;10.35;;;;;;;;;;5059727;28;20021;-79
2023/10/01 00:26:33;;;;;;;31.38;10.95;;;;;;;;;;5071923;28;20025;-78
2023/10/01 00:28:58;;;;;;;26.83;9.13;;;;;;;;;;5057461;28;20029;-78
2023/10/01 00:31:24;;;;;;;29.55;10.02;;;;;;;;;;5057148;28;20029;-77
2023/10/01 00:33:49;;;;;;;47.13;15.15;;;;;;;;;;5056779;28;20029;-78
2023/10/01 00:36:14;;;;;;;56.28;16.58;;;;;;;;;;5057693;28;20392;-79
2023/10/01 00:38:39;;;;;;;67.13;18.05;;;;;;;;;;5038940;28;20083;-78
2023/10/01 00:41:08;;;;;;;64.43;16.77;;;;;;;;;;5057655;28;20029;-78
2023/10/01 00:43:35;;;;;;;62.47;16.73;;;;;;;;;;5057888;28;20036;-79
2023/10/01 00:46:01;;;;;;;51.45;15.80;;;;;;;;;;5040266;28;20048;-79
2023/10/01 00:48:27;;;;;;;58.75;17.15;;;;;;;;;;5040903;28;20033;-78
2023/10/01 00:50:57;;;;;;;53.75;14.77;;;;;;;;;;5040997;28;20033;-78
2023/10/01 00:53:22;;;;;;;55.58;16.17;;;;;;;;;;5073265;28;20086;-79
2023/10/01 00:55:48;;;;;;;48.30;14.25;;;;;;;;;;5057468;28;20040;-78
2023/10/01 00:58:15;;;;;;;44.53;13.63;;;;;;;;;;5036879;28;20541;-78
2023/10/01 01:00:42;;;;;;;40.50;12.75;;;;;;;;;;5067393;28;20036;-78
2023/10/01 01:03:09;;;;;;;53.15;16.67;;;;;;;;;;5060008;28;20021;-77
2023/10/01 01:05:37;;;;;;;51.00;15.88;;;;;;;;;;5058630;28;20021;-78
2023/10/01 01:08:22;;;;;;;63.50;17.60;;;;;;;;;;5015256;28;20080;-78
2023/10/01 01:10:52;;;;;;;49.30;16.25;;;;;;;;;;5061176;28;20036;-78
2023/10/01 01:13:17;;;;;;;49.03;15.45;;;;;;;;;;5071555;28;20071;-78
2023/10/01 01:15:46;;;;;;;60.95;16.33;;;;;;;;;;5067356;28;20334;-78
2023/10/01 01:18:13;;;;;;;57.50;16.13;;;;;;;;;;5064874;28;20074;-78
2023/10/01 01:20:45;;;;;;;53.58;15.52;;;;;;;;;;5056567;28;20101;-77
2023/10/01 01:23:15;;;;;;;60.03;15.75;;;;;;;;;;5060613;28;20037;-78
2023/10/01 01:25:40;;;;;;;42.88;14.57;;;;;;;;;;5045804;28;20047;-78
2023/10/01 01:28:12;;;;;;;56.25;15.85;;;;;;;;;;5071511;28;20032;-78
2023/10/01 01:30:42;;;;;;;56.20;15.07;;;;;;;;;;5067578;28;20032;-78
2023/10/01 01:33:09;;;;;;;60.00;15.73;;;;;;;;;;5063600;28;20107;-78
2023/10/01 01:35:35;;;;;;;50.58;13.82;;;;;;;;;;5047732;28;20076;-78
2023/10/01 01:38:02;;;;;;;42.25;12.18;;;;;;;;;;5036059;28;20060;-77
2023/10/01 01:40:32;;;;;;;49.33;15.65;;;;;;;;;;5043475;23;20053;-85
2023/10/01 01:43:02;;;;;;;51.78;15.55;;;;;;;;;;5035151;28;20033;-84
2023/10/01 01:45:27;;;;;;;53.08;16.85;;;;;;;;;;5027682;28;20492;-83
2023/10/01 01:47:53;;;;;;;47.63;15.73;;;;;;;;;;5048775;28;20049;-83
2023/10/01 01:50:26;;;;;;;59.38;18.27;;;;;;;;;;5069516;28;20519;-84
2023/10/01 01:52:52;;;;;;;67.60;17.80;;;;;;;;;;5067298;28;20547;-84
2023/10/01 01:55:29;;;;;;;59.50;17.35;;;;;;;;;;5071451;28;20032;-82
2023/10/01 01:58:15;;;;;;;59.83;17.10;;;;;;;;;;5065128;28;20469;-82
2023/10/01 02:03:26;;;;;;;77.45;17.58;;;;;;;;;;5068494;28;20096;-80
2023/10/01 02:05:52;;;;;;;50.58;15.18;;;;;;;;;;5069398;28;20021;-80
2023/10/01 02:08:24;;;;;;;62.42;15.27;;;;;;;;;;5054291;28;20032;-79
2023/10/01 02:10:51;;;;;;;48.08;14.35;;;;;;;;;;5067503;28;20033;-82
2023/10/01 02:13:17;;;;;;;46.47;14.50;;;;;;;;;;5070670;28;20399;-81
2023/10/01 02:15:45;;;;;;;46.33;13.98;;;;;;;;;;5069389;28;20059;-81
2023/10/01 02:18:10;;;;;;;44.65;14.82;;;;;;;;;;5063815;28;20491;-81
2023/10/01 02:20:36;;;;;;;50.50;15.40;;;;;;;;;;5056338;28;20029;-79
2023/10/01 02:23:04;;;;;;;46.55;13.38;;;;;;;;;;5055602;28;20033;-79
2023/10/01 02:25:38;;;;;;;40.15;14.88;;;;;;;;;;5074069;28;20525;-82
2023/10/01 02:28:14;;;;;;;56.47;15.82;;;;;;;;;;5075241;28;20028;-80
2023/10/01 02:30:41;;;;;;;59.20;16.15;;;;;;;;;;5074122;28;20516;-80
2023/10/01 02:33:16;;;;;;;53.22;15.68;;;;;;;;;;5074138;28;20066;-81
2023/10/01 02:35:42;;;;;;;55.35;15.88;;;;;;;;;;5074819;28;20079;-84
2023/10/01 02:38:36;;;;;;;54.85;15.90;;;;;;;;;;5073570;28;20028;-82
2023/10/01 02:41:01;;;;;;;61.55;16.75;;;;;;;;;;5073495;28;20500;-81
2023/10/01 02:43:40;;;;;;;60.05;15.40;;;;;;;;;;5073467;28;20032;-83
2023/10/01 02:46:12;;;;;;;52.72;15.07;;;;;;;;;;5059826;28;20033;-83
2023/10/01 02:48:41;;;;;;;43.72;13.52;;;;;;;;;;5053749;28;20040;-83
2023/10/01 02:51:16;;;;;;;46.55;13.88;;;;;;;;;;5066676;28;20089;-82
2023/10/01 02:53:42;;;;;;;45.60;14.63;;;;;;;;;;5062131;28;20021;-80
2023/10/01 02:56:12;;;;;;;54.53;15.05;;;;;;;;;;5063011;28;20025;-79
2023/10/01 02:58:44;;;;;;;68.07;16.20;;;;;;;;;;5060768;28;20037;-80
2023/10/01 03:01:13;;;;;;;61.72;17.15;;;;;;;;;;5065003;28;20037;-82
2023/10/01 03:03:39;;;;;;;58.13;16.02;;;;;;;;;;5053249;28;20037;-80
2023/10/01 03:06:09;;;;;;;70.05;15.85;;;;;;;;;;5055834;28;20025;-83
2023/10/01 03:09:00;;;;;;;50.70;16.25;;;;;;;;;;5072329;28;20136;-81
2023/10/01 03:11:26;;;;;;;47.45;14.23;;;;;;;;;;5054568;28;20171;-81
2023/10/01 03:13:54;;;;;;;55.72;15.45;;;;;;;;;;5055494;28;20080;-82
2023/10/01 03:19:13;;;;;;;53.95;15.80;;;;;;;;;;5055964;28;20048;-84
2023/10/01 03:24:25;;;;;;;43.15;15.00;;;;;;;;;;5062324;28;19943;-80
2023/10/01 03:26:51;;;;;;;65.50;15.70;;;;;;;;;;5059633;28;20028;-86
2023/10/01 03:29:21;;;;;;;54.83;14.60;;;;;;;;;;5059531;28;20451;-84
2023/10/01 03:31:46;;;;;;;44.95;14.07;;;;;;;;;;5078032;28;20037;-83
2023/10/01 03:34:28;;;;;;;45.88;13.20;;;;;;;;;;5077740;28;20415;-86
2023/10/01 03:37:00;;;;;;;37.88;13.13;;;;;;;;;;5077623;28;20033;-83
2023/10/01 03:39:26;;;;;;;57.05;14.70;;;;;;;;;;5077303;28;20037;-83
2023/10/01 03:41:53;;;;;;;46.97;13.35;;;;;;;;;;5078645;28;20031;-84
2023/10/01 03:44:40;;;;;;;40.03;12.75;;;;;;;;;;5077932;28;20036;-83
2023/10/01 03:47:08;;;;;;;50.00;13.48;;;;;;;;;;5078224;28;20032;-82
2023/10/01 03:49:45;;;;;;;52.97;14.18;;;;;;;;;;5077504;28;20033;-84
2023/10/01 03:52:14;;;;;;;52.83;13.95;;;;;;;;;;5077577;28;20048;-84
2023/10/01 03:57:17;;;;;;;46.28;11.90;;;;;;;;;;5077552;28;20031;-85
2023/10/01 03:59:52;;;;;;;38.75;11.70;;;;;;;;;;5078308;28;20020;-83
2023/10/01 04:02:46;;;;;;;31.02;10.23;;;;;;;;;;5077295;28;20037;-85
2023/10/01 04:05:30;;;;;;;29.70;11.05;;;;;;;;;;5077684;28;20033;-85
2023/10/01 04:07:59;;;;;;;36.67;11.60;;;;;;;;;;5077480;28;20044;-85
2023/10/01 04:12:54;;;;;;;58.97;15.20;;;;;;;;;;5077067;28;20028;-84
2023/10/01 04:15:41;;;;;;;51.85;16.00;;;;;;;;;;5076050;28;20074;-83
2023/10/01 04:18:28;;;;;;;51.95;15.65;;;;;;;;;;5050350;28;20033;-80
2023/10/01 04:23:40;;;;;;;56.50;15.25;;;;;;;;;;5049757;28;20497;-82
2023/10/01 04:26:07;;;;;;;47.80;14.40;;;;;;;;;;5039332;28;20500;-81
2023/10/01 04:28:43;;;;;;;57.85;15.27;;;;;;;;;;5037826;28;20044;-83
2023/10/01 04:31:09;;;;;;;52.50;15.75;;;;;;;;;;5048112;28;20152;-82
2023/10/01 04:33:42;;;;;;;53.10;15.77;;;;;;;;;;5058512;28;20049;-82
2023/10/01 04:36:11;;;;;;;62.60;15.38;;;;;;;;;;5047739;28;20025;-81
2023/10/01 04:38:38;;;;;;;67.72;14.40;;;;;;;;;;5037010;28;20045;-82
2023/10/01 04:41:03;;;;;;;61.13;15.63;;;;;;;;;;5035606;28;20044;-80
2023/10/01 04:43:34;;;;;;;56.13;14.98;;;;;;;;;;5036331;28;20089;-83
2023/10/01 04:46:03;;;;;;;50.97;14.73;;;;;;;;;;5036455;28;20037;-83
2023/10/01 04:48:28;;;;;;;53.53;14.23;;;;;;;;;;5036203;28;20060;-80
2023/10/01 04:50:54;;;;;;;49.30;15.38;;;;;;;;;;5018724;28;20018;-83
2023/10/01 04:53:21;;;;;;;63.78;16.10;;;;;;;;;;5035940;28;20425;-82
2023/10/01 04:56:05;;;;;;;59.63;15.13;;;;;;;;;;5035747;28;20525;-82
2023/10/01 04:58:36;;;;;;;48.55;13.90;;;;;;;;;;5022587;28;20032;-80
2023/10/01 05:01:05;;;;;;;51.15;14.30;;;;;;;;;;5041577;28;20064;-80
2023/10/01 05:03:40;;;;;;;49.40;13.95;;;;;;;;;;5041178;28;20430;-80
2023/10/01 05:06:13;;;;;;;61.92;15.30;;;;;;;;;;5054360;28;20040;-81
2023/10/01 05:08:39;;;;;;;53.27;14.67;;;;;;;;;;5062558;28;20043;-80
2023/10/01 05:11:10;;;;;;;58.10;13.32;;;;;;;;;;5069954;28;20408;-81
2023/10/01 05:13:47;;;;;;;55.35;14.40;;;;;;;;;;5048696;28;20040;-81
2023/10/01 05:16:14;;;;;;;51.53;14.55;;;;;;;;;;5072913;28;20048;-80
2023/10/01 05:18:45;;;;;;;52.15;13.73;;;;;;;;;;5062698;28;20028;-81
2023/10/01 05:21:14;;;;;;;58.50;15.05;;;;;;;;;;5062826;28;20110;-82
2023/10/01 05:23:41;;;;;;;35.90;12.77;;;;;;;;;;5063532;28;20047;-80
2023/10/01 05:26:08;;;;;;;45.10;13.43;;;;;;;;;;5057944;28;20763;-82
2023/10/01 05:28:36;;;;;;;61.10;14.88;;;;;;;;;;5058086;28;20081;-80
2023/10/01 05:31:08;;;;;;;46.33;13.90;;;;;;;;;;5058432;28;20119;-80
2023/10/01 05:33:34;;;;;;;55.35;14.63;;;;;;;;;;5058554;28;20065;-81
2023/10/01 05:36:04;;;;;;;47.80;13.80;;;;;;;;;;5034789;28;20036;-81
2023/10/01 05:38:33;;;;;;;49.72;14.32;;;;;;;;;;5053950;28;20033;-81
2023/10/01 05:41:03;;;;;;;58.22;15.05;;;;;;;;;;5032245;28;20041;-80
2023/10/01 05:43:37;;;;;;;48.65;13.57;;;;;;;;;;5056379;28;20052;-82
2023/10/01 05:46:08;;;;;;;46.35;14.30;;;;;;;;;;5034898;28;20107;-81
2023/10/01 05:48:34;;;;;;;52.65;14.93;;;;;;;;;;5055210;28;20580;-80
2023/10/01 05:51:00;;;;;;;46.80;14.32;;;;;;;;;;5075812;28;20020;-80
2023/10/01 05:53:25;;;;;;;41.53;13.57;;;;;;;;;;5069405;28;20048;-82
2023/10/01 05:55:51;;;;;;;42.85;13.13;;;;;;;;;;5044477;28;20390;-83
2023/10/01 05:58:16;;;;;;;66.93;13.70;;;;;;;;;;5038373;28;20167;-81
2023/10/01 06:00:56;;;;;;;29.80;10.23;;;;;;;;;;5067514;28;20032;-84
2023/10/01 06:03:23;;;;;;;33.63;11.13;;;;;;;;;;5075116;28;20020;-84
2023/10/01 06:05:58;;;;;;;26.98;9.75;;;;;;;;;;5076224;28;20083;-81
2023/10/01 06:08:25;;;;;;;33.58;11.23;;;;;;;;;;5075076;28;20048;-81
2023/10/01 06:11:13;;;;;;;35.88;11.57;;;;;;;;;;5075294;28;20036;-83
2023/10/01 06:13:48;;;;;;;29.90;10.52;;;;;;;;;;5074274;28;20033;-82
2023/10/01 06:16:22;;;;;;;31.30;10.55;;;;;;;;;;5040273;28;20500;-82
2023/10/01 06:18:50;;;;;;;36.22;10.95;;;;;;;;;;5062299;28;20094;-81
2023/10/01 06:21:31;;;;;;;26.20;10.35;;;;;;;;;;5063449;28;20032;-81
2023/10/01 06:24:04;;;;;;;27.27;9.77;;;;;;;;;;5061982;28;20128;-82
2023/10/01 06:26:36;;;;;;;23.70;9.10;;;;;;;;;;5042324;28;20079;-82
2023/10/01 06:29:07;;;;;;;19.30;7.93;;;;;;;;;;5063794;28;20124;-81
2023/10/01 06:32:15;;;;;;;20.35;7.88;;;;;;;;;;5060722;28;20122;-81
2023/10/01 06:34:24;;;;;;;21.38;8.32;;;;;;;;;;5042728;28;20090;-83
2023/10/01 06:36:51;;;;;;;21.60;7.82;;;;;;;;;;5046967;28;20350;-82
2023/10/01 06:39:20;;;;;;;18.00;7.82;;;;;;;;;;5064509;28;20109;-82
2023/10/01 06:41:50;;;;;;;23.25;8.45;;;;;;;;;;5066803;28;20040;-82
2023/10/01 06:44:16;;;;;;;15.63;7.88;;;;;;;;;;5066951;28;20107;-82
2023/10/01 06:46:41;;;;;;;22.20;8.35;;;;;;;;;;5063449;28;20060;-80
2023/10/01 06:49:08;;;;;;;17.65;7.85;;;;;;;;;;5068540;28;20032;-82
2023/10/01 06:51:45;;;;;;;18.77;7.88;;;;;;;;;;5067808;28;20037;-83
2023/10/01 06:54:12;;;;;;;22.15;7.85;;;;;;;;;;5059056;28;20035;-81
2023/10/01 06:56:43;;;;;;;16.83;7.35;;;;;;;;;;5067582;28;20488;-80
2023/10/01 07:01:42;;;;;;;14.27;7.03;;;;;;;;;;5064909;28;20139;-81
2023/10/01 07:04:09;;;;;;;15.52;7.20;;;;;;;;;;5068300;28;20040;-82
2023/10/01 07:06:38;;;;;;;18.83;8.02;;;;;;;;;;5068021;28;20052;-81
2023/10/01 07:09:23;;;;;;;16.05;7.47;;;;;;;;;;5052381;28;20089;-80
2023/10/01 07:11:50;;;;;;;18.55;8.10;;;;;;;;;;5046366;28;20106;-79
2023/10/01 07:14:18;;;;;;;18.33;7.65;;;;;;;;;;5060654;28;20041;-79
2023/10/01 07:16:44;;;;;;;20.63;8.02;;;;;;;;;;5035711;28;20056;-82
2023/10/01 07:19:11;;;;;;;21.73;8.70;;;;;;;;;;5045653;28;20112;-81
2023/10/01 07:21:39;;;;;;;16.77;7.75;;;;;;;;;;5046378;28;20040;-83
2023/10/01 07:24:07;;;;;;;17.98;7.32;;;;;;;;;;5062746;28;20442;-83
2023/10/01 07:26:37;;;;;;;19.58;7.93;;;;;;;;;;5068177;28;20642;-83
2023/10/01 07:29:05;;;;;;;19.58;8.15;;;;;;;;;;5046042;28;20036;-83
2023/10/01 07:31:35;;;;;;;16.98;7.45;;;;;;;;;;5058878;28;20044;-83
2023/10/01 07:34:01;;;;;;;19.27;7.78;;;;;;;;;;5062744;28;20032;-80
2023/10/01 07:36:27;;;;;;;18.80;7.63;;;;;;;;;;5069929;28;20032;-81
2023/10/01 07:38:56;;;;;;;18.00;8.00;;;;;;;;;;5066834;28;20033;-81
2023/10/01 07:41:24;;;;;;;20.30;8.13;;;;;;;;;;5057186;22;20034;-78
2023/10/01 07:43:50;;;;;;;21.20;7.85;;;;;;;;;;5037657;28;20403;-78
2023/10/01 07:46:18;;;;;;;14.57;8.05;;;;;;;;;;5037215;28;20112;-78
2023/10/01 07:48:47;;;;;;;18.88;8.60;;;;;;;;;;5036749;28;20033;-77
2023/10/01 07:51:26;;;;;;;17.73;7.30;;;;;;;;;;5019462;28;20022;-77
2023/10/01 07:53:52;;;;;;;14.93;7.15;;;;;;;;;;5038353;28;20095;-77
2023/10/01 07:56:21;;;;;;;13.65;7.03;;;;;;;;;;5037359;28;20041;-80
2023/10/01 07:58:48;;;;;;;20.65;7.35;;;;;;;;;;5020297;28;20030;-79
2023/10/01 08:04:06;;;;;;;20.45;7.95;;;;;;;;;;5038517;28;20041;-80
2023/10/01 08:06:33;;;;;;;18.60;7.35;;;;;;;;;;5038036;28;20029;-79
2023/10/01 08:08:59;;;;;;;19.73;7.70;;;;;;;;;;5037627;28;20098;-79
2023/10/01 08:14:10;;;;;;;18.83;7.05;;;;;;;;;;5037838;28;20527;-79
2023/10/01 08:16:48;;;;;;;20.98;7.13;;;;;;;;;;5019617;28;20046;-78
2023/10/01 08:19:23;;;;;;;16.90;7.95;;;;;;;;;;5038118;28;20064;-79
2023/10/01 08:21:50;;;;;;;15.13;6.75;;;;;;;;;;5019863;28;20031;-79
2023/10/01 08:24:33;;;;;;;18.08;6.95;;;;;;;;;;5019477;28;20033;-79
2023/10/01 08:27:04;;;;;;;16.25;6.78;;;;;;;;;;5037248;28;20017;-80
2023/10/01 08:29:59;;;;;;;17.42;7.57;;;;;;;;;;5019192;28;20037;-80
2023/10/01 08:32:22;;;;;;;21.60;7.85;;;;;;;;;;5036758;28;20052;-80
2023/10/01 08:35:02;;;;;;;14.48;7.10;;;;;;;;;;5037234;28;20171;-79
2023/10/01 08:37:31;;;;;;;17.92;7.07;;;;;;;;;;5020094;28;20049;-79
2023/10/01 08:40:00;;;;;;;19.30;7.53;;;;;;;;;;5037351;28;20044;-80
2023/10/01 08:42:29;;;;;;;15.30;6.97;;;;;;;;;;5038027;28;20033;-79
2023/10/01 08:45:04;;;;;;;18.75;7.32;;;;;;;;;;5019609;28;20159;-79
2023/10/01 08:47:34;;;;;;;18.58;7.78;;;;;;;;;;5037341;28;20060;-79
2023/10/01 08:53:01;;;;;;;16.13;7.75;;;;;;;;;;5037195;28;20044;-77
2023/10/01 08:55:43;;;;;;;15.70;7.25;;;;;;;;;;5037149;28;20493;-79
2023/10/01 08:58:15;;;;;;;16.52;7.25;;;;;;;;;;5019566;28;20525;-79
2023/10/01 09:00:49;;;;;;;17.42;7.18;;;;;;;;;;5036804;28;20080;-79
2023/10/01 09:03:26;;;;;;;18.17;7.95;;;;;;;;;;5036620;28;20025;-81
2023/10/01 09:06:06;;;;;;;21.25;6.93;;;;;;;;;;5037748;28;20013;-79
2023/10/01 09:08:43;;;;;;;16.95;7.10;;;;;;;;;;5018587;28;20453;-80
2023/10/01 09:11:13;;;;;;;21.90;8.18;;;;;;;;;;5036728;28;20088;-80
2023/10/01 09:14:14;;;;;;;16.75;6.97;;;;;;;;;;5036518;28;20044;-79
2023/10/01 09:16:42;;;;;;;17.50;7.95;;;;;;;;;;5036212;28;20072;-79
2023/10/01 09:22:04;;;;;;;15.40;6.82;;;;;;;;;;5037095;28;20413;-79
2023/10/01 09:24:39;;;;;;;18.42;7.20;;;;;;;;;;5036453;28;20091;-80
2023/10/01 09:27:37;;;;;;;19.08;7.88;;;;;;;;;;5036584;28;20017;-79
2023/10/01 09:30:29;;;;;;;20.17;7.97;;;;;;;;;;5033951;28;20246;-79
2023/10/01 09:32:55;;;;;;;15.95;7.07;;;;;;;;;;5036675;28;20050;-81
2023/10/01 09:35:38;;;;;;;20.45;7.88;;;;;;;;;;5018604;28;20029;-81
2023/10/01 09:38:10;;;;;;;14.38;7.00;;;;;;;;;;5018637;28;20034;-82
2023/10/01 09:40:38;;;;;;;24.55;8.02;;;;;;;;;;5036400;28;20044;-80
2023/10/01 09:43:04;;;;;;;17.42;7.70;;;;;;;;;;5037555;28;20232;-81
2023/10/01 09:45:37;;;;;;;21.35;8.48;;;;;;;;;;5019252;28;20362;-81
2023/10/01 09:48:05;;;;;;;18.45;7.22;;;;;;;;;;5019149;28;20026;-79
2023/10/01 09:50:39;;;;;;;19.75;7.45;;;;;;;;;;5037088;28;20029;-80
2023/10/01 09:53:13;;;;;;;18.33;7.45;;;;;;;;;;5036810;28;20033;-80
2023/10/01 09:55:56;;;;;;;17.60;7.65;;;;;;;;;;5019570;28;20037;-80
2023/10/01 09:58:26;;;;;;;17.42;6.88;;;;;;;;;;5019355;28;20069;-82
2023/10/01 10:00:53;;;;;;;19.27;7.78;;;;;;;;;;5018665;28;20489;-81
2023/10/01 10:03:19;;;;;;;16.98;7.68;;;;;;;;;;5019581;28;20128;-81
2023/10/01 10:05:46;;;;;;;20.35;7.93;;;;;;;;;;5019500;28;20052;-81
2023/10/01 10:08:20;;;;;;;20.77;7.65;;;;;;;;;;5018340;28;20374;-79
2023/10/01 10:10:52;;;;;;;18.92;6.75;;;;;;;;;;5019255;28;20060;-78
2023/10/01 10:13:50;;;;;;;25.23;8.75;;;;;;;;;;5036698;28;20044;-78
2023/10/01 10:16:30;;;;;;;21.42;7.60;;;;;;;;;;4986147;28;20049;-79
2023/10/01 10:19:10;;;;;;;18.52;8.07;;;;;;;;;;5019201;28;20105;-82
2023/10/01 10:22:07;;;;;;;20.88;7.10;;;;;;;;;;5018378;28;20057;-80
2023/10/01 10:24:46;;;;;;;19.40;7.68;;;;;;;;;;5036146;28;20550;-79
2023/10/01 10:27:16;;;;;;;16.75;7.35;;;;;;;;;;5017819;28;20029;-81
2023/10/01 10:29:57;;;;;;;16.10;6.97;;;;;;;;;;5036149;28;20421;-81
2023/10/01 10:32:31;;;;;;;16.55;7.47;;;;;;;;;;5017276;28;20033;-80
2023/10/01 10:35:06;;;;;;;16.40;7.18;;;;;;;;;;5034843;28;20033;-79
2023/10/01 10:37:37;;;;;;;18.98;8.38;;;;;;;;;;5017357;28;20042;-81
2023/10/01 10:40:13;;;;;;;18.10;7.25;;;;;;;;;;5026427;28;20041;-78
2023/10/01 10:43:07;;;;;;;20.05;7.82;;;;;;;;;;5055229;28;20094;-79
2023/10/01 10:45:46;;;;;;;20.85;8.10;;;;;;;;;;5033327;28;20096;-80
2023/10/01 10:48:24;;;;;;;21.48;8.00;;;;;;;;;;5054342;28;20017;-79
2023/10/01 10:50:53;;;;;;;22.83;7.85;;;;;;;;;;5053139;28;20048;-80
2023/10/01 10:53:20;;;;;;;16.33;7.68;;;;;;;;;;5035965;28;20038;-80
2023/10/01 10:56:00;;;;;;;20.27;8.07;;;;;;;;;;5036022;28;20041;-80
2023/10/01 10:58:28;;;;;;;18.85;7.82;;;;;;;;;;5018327;28;20038;-79
2023/10/01 11:01:43;;;;;;;16.95;7.55;;;;;;;;;;5018026;28;20030;-78
2023/10/01 11:03:49;;;;;;;20.70;8.32;;;;;;;;;;5030217;28;20087;-80
2023/10/01 11:06:42;;;;;;;20.02;8.07;;;;;;;;;;5017998;28;20057;-80
2023/10/01 11:09:30;;;;;;;17.55;7.30;;;;;;;;;;5018064;28;20405;-80
2023/10/01 11:11:58;;;;;;;18.77;7.43;;;;;;;;;;5018517;28;20187;-81
2023/10/01 11:14:25;;;;;;;17.40;7.38;;;;;;;;;;5018416;28;20049;-80
2023/10/01 11:16:50;;;;;;;21.85;7.70;;;;;;;;;;5036527;28;20126;-80
2023/10/01 11:19:25;;;;;;;20.52;8.18;;;;;;;;;;5036532;28;20033;-80
2023/10/01 11:22:00;;;;;;;19.13;7.88;;;;;;;;;;5034300;28;20399;-79
2023/10/01 11:24:32;;;;;;;18.77;8.27;;;;;;;;;;5037493;28;20097;-80
2023/10/01 11:27:14;;;;;;;16.95;7.22;;;;;;;;;;5021742;28;20018;-80
2023/10/01 11:29:54;;;;;;;20.33;8.90;;;;;;;;;;5019420;28;20120;-80
2023/10/01 11:32:19;;;;;;;19.20;8.25;;;;;;;;;;5038254;28;20029;-80
2023/10/01 11:34:46;;;;;;;18.67;8.00;;;;;;;;;;5038767;28;20405;-79
2023/10/01 11:37:18;;;;;;;21.13;8.38;;;;;;;;;;5022174;28;20036;-80
2023/10/01 11:39:52;;;;;;;17.10;7.32;;;;;;;;;;5029024;28;20040;-79
2023/10/01 11:42:35;;;;;;;18.70;8.02;;;;;;;;;;5039825;28;20493;-80
2023/10/01 11:45:31;;;;;;;13.65;7.00;;;;;;;;;;5058196;28;20025;-80
2023/10/01 11:48:05;;;;;;;22.08;7.55;;;;;;;;;;5038425;28;20071;-78
2023/10/01 11:50:49;;;;;;;18.48;7.85;;;;;;;;;;5040017;28;20102;-80
2023/10/01 11:53:16;;;;;;;20.60;7.80;;;;;;;;;;5057924;28;20033;-80
2023/10/01 11:55:41;;;;;;;18.90;7.88;;;;;;;;;;5039346;28;20037;-80
2023/10/01 11:58:06;;;;;;;20.48;8.93;;;;;;;;;;5057693;28;20044;-81
2023/10/01 12:03:18;;;;;;;18.25;7.70;;;;;;;;;;5057337;28;20039;-81
2023/10/01 12:05:46;;;;;;;17.83;7.95;;;;;;;;;;5031474;28;20056;-77
2023/10/01 12:08:17;;;;;;;15.27;7.28;;;;;;;;;;5050386;28;20044;-79
2023/10/01 12:10:43;;;;;;;19.05;7.70;;;;;;;;;;5056245;28;20033;-79
2023/10/01 12:13:10;;;;;;;17.90;7.30;;;;;;;;;;5056340;28;20033;-79
2023/10/01 12:15:40;;;;;;;19.38;7.90;;;;;;;;;;5042013;28;20041;-79
2023/10/01 12:18:15;;;;;;;16.25;7.90;;;;;;;;;;5036704;28;20040;-78
2023/10/01 12:20:47;;;;;;;18.75;7.75;;;;;;;;;;5036845;28;20071;-79
2023/10/01 12:23:14;;;;;;;19.35;8.40;;;;;;;;;;5046238;28;20044;-79
2023/10/01 12:25:46;;;;;;;17.92;8.30;;;;;;;;;;5038454;28;20116;-79
2023/10/01 12:28:18;;;;;;;13.85;7.38;;;;;;;;;;5054490;28;20390;-79
2023/10/01 12:30:58;;;;;;;20.58;7.20;;;;;;;;;;5042472;28;20032;-79
2023/10/01 12:33:24;;;;;;;20.17;7.57;;;;;;;;;;5038237;28;20091;-79
2023/10/01 12:35:50;;;;;;;16.75;7.95;;;;;;;;;;5037522;28;20033;-82
2023/10/01 12:40:40;;;;;;;16.47;8.10;;;;;;;;;;5020337;28;1028514;-79
2023/10/01 12:45:51;;;;;;;15.52;7.38;;;;;;;;;;5043951;28;20251;-79
2023/10/01 12:48:20;;;;;;;18.30;7.85;;;;;;;;;;5037957;28;20029;-79
2023/10/01 12:51:03;;;;;;;17.23;7.68;;;;;;;;;;5057256;28;20036;-78
2023/10/01 12:53:34;;;;;;;18.65;8.27;;;;;;;;;;5057444;28;20064;-80
2023/10/01 12:56:04;;;;;;;18.02;7.72;;;;;;;;;;5039173;28;20045;-78
2023/10/01 12:58:35;;;;;;;15.68;8.05;;;;;;;;;;5027767;28;20033;-79
2023/10/01 13:01:12;;;;;;;14.82;8.15;;;;;;;;;;5036089;28;20405;-77
2023/10/01 13:03:49;;;;;;;18.17;7.90;;;;;;;;;;5018226;28;20494;-79
2023/10/01 13:06:14;;;;;;;17.65;8.57;;;;;;;;;;5038476;28;20085;-80
2023/10/01 13:08:44;;;;;;;16.20;7.68;;;;;;;;;;5031363;28;20140;-80
2023/10/01 13:13:54;;;;;;;17.38;7.85;;;;;;;;;;5037460;28;20039;-81
2023/10/01 13:16:19;;;;;;;17.15;7.90;;;;;;;;;;5024113;28;20113;-80
2023/10/01 13:18:45;;;;;;;14.98;7.38;;;;;;;;;;5026283;28;20527;-79
2023/10/01 13:21:11;;;;;;;22.13;8.80;;;;;;;;;;5044011;28;20412;-80
2023/10/01 13:23:43;;;;;;;16.70;8.25;;;;;;;;;;5056434;28;20052;-79
2023/10/01 13:26:24;;;;;;;13.38;7.18;;;;;;;;;;5040067;28;20494;-80
2023/10/01 13:28:51;;;;;;;14.55;7.78;;;;;;;;;;5022943;28;20029;-79
2023/10/01 13:34:21;;;;;;;18.35;7.53;;;;;;;;;;5042185;28;20030;-80
2023/10/01 13:37:11;;;;;;;14.60;7.28;;;;;;;;;;5004733;28;20042;-81
2023/10/01 14:09:47;;;;;;;15.32;7.13;;;;;;;;;;5048814;28;20048;-75
2023/10/01 14:12:12;;;;;;;15.88;7.82;;;;;;;;;;5047316;28;20289;-75
2023/10/01 14:14:37;;;;;;;18.25;7.65;;;;;;;;;;5059226;28;20089;-75
2023/10/01 14:17:14;;;;;;;14.65;7.50;;;;;;;;;;5059813;28;20044;-75
2023/10/01 14:19:51;;;;;;;16.98;7.90;;;;;;;;;;5062513;28;20033;-75
2023/10/01 14:22:20;;;;;;;13.55;7.10;;;;;;;;;;5059466;28;20032;-75
2023/10/01 14:24:50;;;;;;;15.48;7.55;;;;;;;;;;5063335;28;20043;-75
2023/10/01 14:27:25;;;;;;;14.45;7.15;;;;;;;;;;5062481;28;20055;-75
2023/10/01 14:32:38;;;;;;;17.75;7.40;;;;;;;;;;5062769;28;20349;-75
2023/10/01 14:35:14;;;;;;;14.93;7.55;;;;;;;;;;5046486;28;20033;-75
2023/10/01 14:37:56;;;;;;;15.82;7.53;;;;;;;;;;5048008;28;20120;-75
2023/10/01 14:40:25;;;;;;;15.48;6.75;;;;;;;;;;5045894;28;20448;-75
2023/10/01 14:42:59;;;;;;;15.00;6.82;;;;;;;;;;5048027;28;20029;-75
2023/10/01 14:45:33;;;;;;;15.60;7.72;;;;;;;;;;5058061;28;20064;-75
2023/10/01 14:48:06;;;;;;;17.25;7.20;;;;;;;;;;5063579;28;20028;-75
2023/10/01 14:50:41;;;;;;;15.55;6.90;;;;;;;;;;5059846;28;20052;-77
2023/10/01 14:53:12;;;;;;;16.83;7.55;;;;;;;;;;5062543;28;20120;-75
2023/10/01 14:55:42;;;;;;;17.98;8.23;;;;;;;;;;5060737;28;20029;-75
2023/10/01 14:58:16;;;;;;;17.73;6.97;;;;;;;;;;5064406;28;20103;-75
2023/10/01 15:00:49;;;;;;;14.57;7.13;;;;;;;;;;5069135;28;20036;-76
2023/10/01 15:03:36;;;;;;;15.15;7.80;;;;;;;;;;5074059;28;20035;-76
2023/10/01 15:06:05;;;;;;;17.10;7.63;;;;;;;;;;5070430;28;20027;-76
2023/10/01 15:08:34;;;;;;;15.27;7.50;;;;;;;;;;5068918;28;20047;-77
2023/10/01 15:11:11;;;;;;;17.27;7.15;;;;;;;;;;5065718;28;20472;-77
2023/10/01 15:13:44;;;;;;;13.52;6.65;;;;;;;;;;5061594;28;20044;-76
2023/10/01 15:16:15;;;;;;;15.13;7.47;;;;;;;;;;5067137;28;20043;-77
2023/10/01 15:18:42;;;;;;;15.38;7.32;;;;;;;;;;5063737;28;20500;-76
2023/10/01 15:21:23;;;;;;;13.25;6.40;;;;;;;;;;5064403;28;20033;-77
2023/10/01 15:24:04;;;;;;;16.10;7.18;;;;;;;;;;5060566;28;20101;-77
2023/10/01 15:26:29;;;;;;;15.30;6.78;;;;;;;;;;5057493;28;20033;-77
2023/10/01 15:28:56;;;;;;;17.13;7.25;;;;;;;;;;5060454;28;20045;-77
2023/10/01 15:31:23;;;;;;;18.15;7.93;;;;;;;;;;5062897;28;20055;-77
2023/10/01 15:34:00;;;;;;;21.25;8.13;;;;;;;;;;5069236;28;20041;-77
2023/10/01 15:36:46;;;;;;;18.10;7.88;;;;;;;;;;5067830;28;20401;-76
2023/10/01 15:42:11;;;;;;;19.45;8.23;;;;;;;;;;5063751;28;20043;-77
2023/10/01 15:44:47;;;;;;;17.80;7.63;;;;;;;;;;5065871;28;20187;-77
2023/10/01 15:47:13;;;;;;;23.77;8.00;;;;;;;;;;5063157;28;20135;-76
2023/10/01 15:49:41;;;;;;;17.85;7.70;;;;;;;;;;5065715;28;20147;-77
2023/10/01 15:52:11;;;;;;;20.77;8.13;;;;;;;;;;5067032;28;20040;-76
2023/10/01 15:54:38;;;;;;;23.10;8.68;;;;;;;;;;5063703;28;20040;-76
2023/10/01 15:57:04;;;;;;;16.63;7.25;;;;;;;;;;5062141;28;20017;-76
2023/10/01 15:59:30;;;;;;;15.13;6.78;;;;;;;;;;5066924;28;20020;-76
2023/10/01 16:01:56;;;;;;;17.52;8.10;;;;;;;;;;5044110;28;20076;-76
2023/10/01 16:04:23;;;;;;;17.02;7.85;;;;;;;;;;5064922;28;20068;-76
2023/10/01 16:07:01;;;;;;;18.88;8.15;;;;;;;;;;5065769;28;20053;-76
2023/10/01 16:09:41;;;;;;;14.65;7.25;;;;;;;;;;5063446;28;20059;-76